CDT,Max TemperatureF,Mean TemperatureF,Min TemperatureF,Max Dew PointF,MeanDew PointF,Min DewpointF,Max Humidity, Mean Humidity, Min Humidity, Max Sea Level PressureIn, Mean Sea Level PressureIn, Min Sea Level PressureIn, Max VisibilityMiles, Mean VisibilityMiles, Min VisibilityMiles, Max Wind SpeedMPH, Mean Wind SpeedMPH, Max Gust SpeedMPH,PrecipitationIn, CloudCover, Events, WindDirDegrees
2013-9-1,84,72,60,64,61,57,100,85,51,29.84,29.80,29.73,10,7,0,18,3,37,0.00,4,Fog-Rain,291
2013-9-2,69,63,55,57,54,46,88,75,49,30.02,29.92,29.83,10,10,10,14,4,17,0.00,3,,340
2013-9-3,73,62,50,66,48,45,88,72,36,30.10,30.05,30.01,10,10,10,9,3,,0.00,0,,285
2013-9-4,80,66,51,61,54,50,94,77,42,30.16,30.09,30.04,10,10,10,12,3,17,0.00,2,,295
2013-9-5,68,60,53,59,49,39,83,63,37,30.31,30.24,30.17,10,10,10,13,5,16,0.00,3,,56
2013-9-6,82,64,46,63,52,43,93,71,33,30.25,30.15,30.00,10,10,10,10,2,,0.00,0,,202
2013-9-7,82,75,68,66,62,59,88,74,48,30.02,29.97,29.91,10,10,2,23,7,31,0.00,3,Rain-Thunderstorm,220
2013-9-8,71,68,64,63,60,59,88,81,64,30.09,30.04,29.98,10,10,5,16,10,25,0.00,7,Rain,48
2013-9-9,86,76,66,72,65,61,83,74,58,30.00,29.89,29.80,10,8,4,16,5,18,0.00,2,Rain,166
2013-9-10,95,86,77,68,60,54,62,49,26,29.96,29.90,29.82,10,10,10,17,12,25,0.00,0,,230
2013-9-11,80,74,68,64,62,61,83,68,51,30.08,30.00,29.96,10,10,10,13,7,17,0.00,2,,270
2013-9-12,73,64,53,61,55,45,94,77,50,30.14,30.02,29.98,10,10,3,15,4,22,0.00,2,,8
2013-9-13,62,53,44,43,41,36,82,68,37,30.23,30.18,30.14,10,10,10,16,8,20,0.00,0,,360
2013-9-14,69,55,41,46,41,37,93,69,33,30.19,30.12,30.03,10,10,10,10,1,,0.00,0,,202
2013-9-15,59,56,53,54,48,41,94,75,51,30.24,30.08,30.03,10,9,2,16,5,23,0.05,6,Rain,212
2013-9-16,60,51,42,45,41,37,87,73,48,30.40,30.34,30.25,10,10,10,14,9,20,0.00,2,,3
2013-9-17,66,54,41,52,44,37,93,78,56,30.36,30.28,30.13,10,10,10,14,2,17,0.00,1,,144
2013-9-18,78,68,57,63,56,50,88,73,54,30.13,30.03,29.92,10,10,7,15,5,20,0.02,5,Rain,175
2013-9-19,82,74,66,70,64,61,88,81,58,29.99,29.87,29.76,10,8,3,14,8,20,0.25,4,Rain-Thunderstorm,186
2013-9-20,73,65,57,64,59,50,94,80,57,29.81,29.78,29.73,10,9,2,15,8,21,0.00,3,,244
2013-9-21,59,52,44,52,46,41,88,78,55,29.97,29.88,29.81,10,10,10,16,7,18,0.00,3,,302
2013-9-22,60,50,41,45,40,36,87,75,48,30.09,30.04,29.97,10,10,10,8,3,,0.00,0,,7
2013-9-23,60,50,41,46,42,37,93,80,55,30.14,30.10,30.07,10,10,10,10,1,,0.00,2,,117
2013-9-24,66,54,42,54,45,41,93,80,49,30.09,30.05,29.99,10,10,10,9,1,,0.00,1,,113
2013-9-25,66,55,44,52,46,43,93,82,52,30.02,30.00,29.98,10,7,2,12,1,,0.00,1,,65
2013-9-26,71,58,44,55,47,39,100,81,33,30.12,30.07,30.01,10,6,0,13,1,,0.00,0,Fog,117
2013-9-27,75,58,42,55,47,41,94,79,38,30.18,30.13,30.09,10,8,0,10,1,,0.00,0,Fog,129
2013-9-28,78,64,50,63,54,46,88,73,39,30.09,30.01,29.86,10,9,3,18,7,26,0.08,2,Rain,170
2013-9-29,68,57,46,50,46,36,100,78,32,30.08,30.02,29.96,10,9,2,8,3,,0.00,1,,301
2013-9-30,71,56,42,52,44,41,93,75,35,30.02,29.95,29.86,10,10,10,12,2,,0.00,0,,187